sensor_id;sensor_type;location;lat;lon;timestamp;P1;durP1;ratioP1;P2;durP2;ratioP2
313;SDS011;143;51.634;7.112;2024-02-04T00:01:49;33.23;;;18.33;;
313;SDS011;143;51.634;7.112;2024-02-04T00:04:14;26.53;;;17.53;;
313;SDS011;143;51.634;7.112;2024-02-04T00:06:40;25.60;;;15.90;;
313;SDS011;143;51.634;7.112;2024-02-04T00:09:06;27.97;;;16.60;;
313;SDS011;143;51.634;7.112;2024-02-04T00:11:31;25.20;;;16.43;;
313;SDS011;143;51.634;7.112;2024-02-04T00:13:57;27.23;;;18.00;;
313;SDS011;143;51.634;7.112;2024-02-04T00:16:22;21.10;;;14.43;;
313;SDS011;143;51.634;7.112;2024-02-04T00:18:48;24.83;;;15.57;;
313;SDS011;143;51.634;7.112;2024-02-04T00:21:13;26.47;;;14.93;;
313;SDS011;143;51.634;7.112;2024-02-04T00:23:39;21.67;;;14.47;;
313;SDS011;143;51.634;7.112;2024-02-04T00:26:05;21.27;;;13.23;;
313;SDS011;143;51.634;7.112;2024-02-04T00:28:30;21.60;;;14.47;;
313;SDS011;143;51.634;7.112;2024-02-04T00:30:56;18.67;;;13.10;;
313;SDS011;143;51.634;7.112;2024-02-04T00:33:23;21.23;;;13.53;;
313;SDS011;143;51.634;7.112;2024-02-04T00:35:49;22.13;;;14.90;;
313;SDS011;143;51.634;7.112;2024-02-04T00:38:15;22.80;;;15.27;;
313;SDS011;143;51.634;7.112;2024-02-04T00:40:40;20.30;;;14.63;;
313;SDS011;143;51.634;7.112;2024-02-04T00:43:06;23.33;;;13.90;;
313;SDS011;143;51.634;7.112;2024-02-04T00:45:32;21.03;;;13.43;;
313;SDS011;143;51.634;7.112;2024-02-04T00:47:57;21.13;;;13.43;;
313;SDS011;143;51.634;7.112;2024-02-04T00:50:23;17.07;;;13.20;;
313;SDS011;143;51.634;7.112;2024-02-04T00:52:48;19.87;;;12.63;;
313;SDS011;143;51.634;7.112;2024-02-04T00:55:14;17.50;;;10.97;;
313;SDS011;143;51.634;7.112;2024-02-04T00:57:39;12.10;;;9.10;;
313;SDS011;143;51.634;7.112;2024-02-04T01:00:05;15.77;;;9.60;;
313;SDS011;143;51.634;7.112;2024-02-04T01:02:32;10.53;;;7.97;;
313;SDS011;143;51.634;7.112;2024-02-04T01:04:59;14.07;;;9.30;;
313;SDS011;143;51.634;7.112;2024-02-04T01:07:24;15.87;;;8.73;;
313;SDS011;143;51.634;7.112;2024-02-04T01:09:50;9.47;;;6.73;;
313;SDS011;143;51.634;7.112;2024-02-04T01:12:15;15.20;;;10.40;;
313;SDS011;143;51.634;7.112;2024-02-04T01:14:41;13.67;;;8.70;;
313;SDS011;143;51.634;7.112;2024-02-04T01:17:06;10.20;;;8.00;;
313;SDS011;143;51.634;7.112;2024-02-04T01:19:32;12.50;;;8.47;;
313;SDS011;143;51.634;7.112;2024-02-04T01:21:58;13.80;;;9.40;;
313;SDS011;143;51.634;7.112;2024-02-04T01:24:24;24.33;;;15.20;;
313;SDS011;143;51.634;7.112;2024-02-04T01:26:50;14.73;;;10.50;;
313;SDS011;143;51.634;7.112;2024-02-04T01:29:15;27.50;;;14.50;;
313;SDS011;143;51.634;7.112;2024-02-04T01:31:41;23.17;;;14.17;;
313;SDS011;143;51.634;7.112;2024-02-04T01:34:07;21.90;;;14.47;;
313;SDS011;143;51.634;7.112;2024-02-04T01:36:32;17.63;;;12.80;;
313;SDS011;143;51.634;7.112;2024-02-04T01:38:58;15.30;;;11.40;;
313;SDS011;143;51.634;7.112;2024-02-04T01:41:23;19.67;;;12.10;;
313;SDS011;143;51.634;7.112;2024-02-04T01:43:52;18.20;;;13.03;;
313;SDS011;143;51.634;7.112;2024-02-04T01:46:18;14.43;;;10.87;;
313;SDS011;143;51.634;7.112;2024-02-04T01:48:43;15.23;;;10.53;;
313;SDS011;143;51.634;7.112;2024-02-04T01:51:09;14.30;;;10.30;;
313;SDS011;143;51.634;7.112;2024-02-04T01:53:36;9.67;;;7.33;;
313;SDS011;143;51.634;7.112;2024-02-04T01:56:03;11.40;;;8.00;;
313;SDS011;143;51.634;7.112;2024-02-04T01:58:29;9.93;;;7.07;;
313;SDS011;143;51.634;7.112;2024-02-04T02:00:55;9.40;;;6.50;;
313;SDS011;143;51.634;7.112;2024-02-04T02:03:21;8.70;;;6.37;;
313;SDS011;143;51.634;7.112;2024-02-04T02:05:48;7.97;;;6.00;;
313;SDS011;143;51.634;7.112;2024-02-04T02:08:14;9.00;;;5.80;;
313;SDS011;143;51.634;7.112;2024-02-04T02:10:40;7.63;;;6.23;;
313;SDS011;143;51.634;7.112;2024-02-04T02:13:14;10.90;;;6.40;;
313;SDS011;143;51.634;7.112;2024-02-04T02:15:46;7.03;;;6.00;;
313;SDS011;143;51.634;7.112;2024-02-04T02:18:23;8.57;;;6.30;;
313;SDS011;143;51.634;7.112;2024-02-04T02:23:30;8.57;;;7.10;;
313;SDS011;143;51.634;7.112;2024-02-04T02:25:59;12.93;;;8.80;;
313;SDS011;143;51.634;7.112;2024-02-04T02:28:25;13.73;;;8.77;;
313;SDS011;143;51.634;7.112;2024-02-04T02:30:50;16.50;;;10.30;;
313;SDS011;143;51.634;7.112;2024-02-04T02:33:16;14.80;;;9.60;;
313;SDS011;143;51.634;7.112;2024-02-04T02:35:43;16.13;;;11.47;;
313;SDS011;143;51.634;7.112;2024-02-04T02:38:15;16.97;;;11.27;;
313;SDS011;143;51.634;7.112;2024-02-04T02:41:04;18.97;;;10.83;;
313;SDS011;143;51.634;7.112;2024-02-04T02:43:33;17.33;;;11.00;;
313;SDS011;143;51.634;7.112;2024-02-04T02:46:00;17.37;;;11.53;;
313;SDS011;143;51.634;7.112;2024-02-04T02:48:26;18.83;;;12.13;;
313;SDS011;143;51.634;7.112;2024-02-04T02:50:53;21.33;;;12.93;;
313;SDS011;143;51.634;7.112;2024-02-04T02:53:19;23.60;;;13.07;;
313;SDS011;143;51.634;7.112;2024-02-04T02:55:45;20.03;;;13.43;;
313;SDS011;143;51.634;7.112;2024-02-04T02:58:11;23.97;;;15.03;;
313;SDS011;143;51.634;7.112;2024-02-04T03:00:37;24.43;;;14.03;;
313;SDS011;143;51.634;7.112;2024-02-04T03:03:03;27.97;;;16.17;;
313;SDS011;143;51.634;7.112;2024-02-04T03:05:29;25.70;;;14.50;;
313;SDS011;143;51.634;7.112;2024-02-04T03:07:54;24.53;;;14.60;;
313;SDS011;143;51.634;7.112;2024-02-04T03:10:20;27.50;;;14.87;;
313;SDS011;143;51.634;7.112;2024-02-04T03:12:45;22.47;;;15.43;;
313;SDS011;143;51.634;7.112;2024-02-04T03:15:11;25.90;;;15.30;;
313;SDS011;143;51.634;7.112;2024-02-04T03:17:36;23.70;;;13.43;;
313;SDS011;143;51.634;7.112;2024-02-04T03:20:02;28.57;;;15.10;;
313;SDS011;143;51.634;7.112;2024-02-04T03:22:28;27.13;;;14.90;;
313;SDS011;143;51.634;7.112;2024-02-04T03:24:53;27.80;;;15.87;;
313;SDS011;143;51.634;7.112;2024-02-04T03:27:20;26.67;;;15.47;;
313;SDS011;143;51.634;7.112;2024-02-04T03:29:45;23.70;;;14.10;;
313;SDS011;143;51.634;7.112;2024-02-04T03:32:11;21.30;;;13.77;;
313;SDS011;143;51.634;7.112;2024-02-04T03:34:37;26.87;;;15.57;;
313;SDS011;143;51.634;7.112;2024-02-04T03:37:04;34.10;;;17.20;;
313;SDS011;143;51.634;7.112;2024-02-04T03:39:30;29.53;;;15.43;;
313;SDS011;143;51.634;7.112;2024-02-04T03:41:55;26.43;;;14.30;;
313;SDS011;143;51.634;7.112;2024-02-04T03:44:21;37.67;;;18.07;;
313;SDS011;143;51.634;7.112;2024-02-04T03:46:47;36.20;;;15.30;;
313;SDS011;143;51.634;7.112;2024-02-04T03:49:14;25.50;;;15.87;;
313;SDS011;143;51.634;7.112;2024-02-04T03:51:39;30.77;;;16.50;;
313;SDS011;143;51.634;7.112;2024-02-04T03:54:05;27.53;;;15.50;;
313;SDS011;143;51.634;7.112;2024-02-04T03:56:30;29.10;;;16.80;;
313;SDS011;143;51.634;7.112;2024-02-04T03:58:56;37.23;;;19.07;;
313;SDS011;143;51.634;7.112;2024-02-04T04:01:21;34.53;;;18.33;;
313;SDS011;143;51.634;7.112;2024-02-04T04:03:47;42.70;;;19.57;;
313;SDS011;143;51.634;7.112;2024-02-04T04:06:12;44.30;;;19.63;;
313;SDS011;143;51.634;7.112;2024-02-04T04:08:38;38.60;;;20.60;;
313;SDS011;143;51.634;7.112;2024-02-04T04:11:03;43.90;;;21.33;;
313;SDS011;143;51.634;7.112;2024-02-04T04:13:29;33.20;;;19.33;;
313;SDS011;143;51.634;7.112;2024-02-04T04:15:57;44.13;;;23.60;;
313;SDS011;143;51.634;7.112;2024-02-04T04:18:22;39.13;;;20.60;;
313;SDS011;143;51.634;7.112;2024-02-04T04:20:48;37.03;;;19.73;;
313;SDS011;143;51.634;7.112;2024-02-04T04:23:13;43.90;;;22.77;;
313;SDS011;143;51.634;7.112;2024-02-04T04:25:39;39.13;;;23.03;;
313;SDS011;143;51.634;7.112;2024-02-04T04:28:04;40.60;;;23.10;;
313;SDS011;143;51.634;7.112;2024-02-04T04:30:30;48.17;;;22.63;;
313;SDS011;143;51.634;7.112;2024-02-04T04:32:56;53.87;;;23.10;;
313;SDS011;143;51.634;7.112;2024-02-04T04:35:23;36.90;;;22.70;;
313;SDS011;143;51.634;7.112;2024-02-04T04:37:49;36.03;;;21.70;;
313;SDS011;143;51.634;7.112;2024-02-04T04:40:14;39.87;;;23.03;;
313;SDS011;143;51.634;7.112;2024-02-04T04:42:40;43.07;;;21.90;;
313;SDS011;143;51.634;7.112;2024-02-04T04:45:06;41.63;;;22.57;;
313;SDS011;143;51.634;7.112;2024-02-04T04:47:33;34.90;;;20.33;;
313;SDS011;143;51.634;7.112;2024-02-04T04:49:59;39.37;;;20.80;;
313;SDS011;143;51.634;7.112;2024-02-04T04:52:24;33.33;;;20.00;;
313;SDS011;143;51.634;7.112;2024-02-04T04:54:50;34.93;;;20.53;;
313;SDS011;143;51.634;7.112;2024-02-04T04:57:16;35.87;;;20.97;;
313;SDS011;143;51.634;7.112;2024-02-04T04:59:42;42.40;;;22.93;;
313;SDS011;143;51.634;7.112;2024-02-04T05:02:08;38.57;;;20.50;;
313;SDS011;143;51.634;7.112;2024-02-04T05:04:35;36.47;;;20.57;;
313;SDS011;143;51.634;7.112;2024-02-04T05:07:01;33.27;;;19.33;;
313;SDS011;143;51.634;7.112;2024-02-04T05:09:27;29.83;;;19.93;;
313;SDS011;143;51.634;7.112;2024-02-04T05:11:52;42.13;;;22.47;;
313;SDS011;143;51.634;7.112;2024-02-04T05:14:18;37.73;;;20.60;;
313;SDS011;143;51.634;7.112;2024-02-04T05:16:43;34.37;;;21.10;;
313;SDS011;143;51.634;7.112;2024-02-04T05:19:10;43.33;;;21.47;;
313;SDS011;143;51.634;7.112;2024-02-04T05:21:39;39.00;;;21.10;;
313;SDS011;143;51.634;7.112;2024-02-04T05:24:05;36.27;;;21.33;;
313;SDS011;143;51.634;7.112;2024-02-04T05:26:31;53.23;;;22.57;;
313;SDS011;143;51.634;7.112;2024-02-04T05:28:56;37.53;;;21.53;;
313;SDS011;143;51.634;7.112;2024-02-04T05:31:22;45.40;;;22.70;;
313;SDS011;143;51.634;7.112;2024-02-04T05:33:47;37.40;;;22.27;;
313;SDS011;143;51.634;7.112;2024-02-04T05:36:13;40.90;;;21.50;;
313;SDS011;143;51.634;7.112;2024-02-04T05:38:38;47.87;;;23.17;;
313;SDS011;143;51.634;7.112;2024-02-04T05:41:07;40.77;;;21.20;;
313;SDS011;143;51.634;7.112;2024-02-04T05:43:33;46.13;;;23.63;;
313;SDS011;143;51.634;7.112;2024-02-04T05:45:59;44.70;;;20.83;;
313;SDS011;143;51.634;7.112;2024-02-04T05:48:24;60.87;;;23.67;;
313;SDS011;143;51.634;7.112;2024-02-04T05:50:49;37.90;;;21.67;;
313;SDS011;143;51.634;7.112;2024-02-04T05:53:15;47.13;;;21.13;;
313;SDS011;143;51.634;7.112;2024-02-04T05:55:41;37.03;;;21.43;;
313;SDS011;143;51.634;7.112;2024-02-04T05:58:06;37.90;;;20.80;;
313;SDS011;143;51.634;7.112;2024-02-04T06:00:32;37.37;;;21.50;;
313;SDS011;143;51.634;7.112;2024-02-04T06:02:57;32.40;;;20.20;;
313;SDS011;143;51.634;7.112;2024-02-04T06:05:23;34.97;;;20.00;;
313;SDS011;143;51.634;7.112;2024-02-04T06:07:48;38.83;;;19.00;;
313;SDS011;143;51.634;7.112;2024-02-04T06:10:14;31.77;;;17.97;;
313;SDS011;143;51.634;7.112;2024-02-04T06:12:39;30.03;;;18.97;;
313;SDS011;143;51.634;7.112;2024-02-04T06:15:12;25.13;;;16.23;;
313;SDS011;143;51.634;7.112;2024-02-04T06:17:38;28.43;;;17.57;;
313;SDS011;143;51.634;7.112;2024-02-04T06:20:04;33.33;;;19.23;;
313;SDS011;143;51.634;7.112;2024-02-04T06:22:30;31.17;;;17.50;;
313;SDS011;143;51.634;7.112;2024-02-04T06:24:56;36.10;;;17.07;;
313;SDS011;143;51.634;7.112;2024-02-04T06:27:21;23.33;;;15.47;;
313;SDS011;143;51.634;7.112;2024-02-04T06:29:47;32.93;;;18.03;;
313;SDS011;143;51.634;7.112;2024-02-04T06:32:12;27.67;;;16.60;;
313;SDS011;143;51.634;7.112;2024-02-04T06:34:38;29.83;;;17.33;;
313;SDS011;143;51.634;7.112;2024-02-04T06:37:04;40.67;;;17.47;;
313;SDS011;143;51.634;7.112;2024-02-04T06:39:29;29.00;;;16.50;;
313;SDS011;143;51.634;7.112;2024-02-04T06:41:55;39.77;;;20.07;;
313;SDS011;143;51.634;7.112;2024-02-04T06:44:20;36.23;;;18.07;;
313;SDS011;143;51.634;7.112;2024-02-04T06:46:46;32.63;;;17.27;;
313;SDS011;143;51.634;7.112;2024-02-04T06:49:12;26.70;;;16.47;;
313;SDS011;143;51.634;7.112;2024-02-04T06:51:43;25.37;;;15.53;;
313;SDS011;143;51.634;7.112;2024-02-04T06:54:09;30.90;;;17.03;;
313;SDS011;143;51.634;7.112;2024-02-04T06:56:35;26.90;;;16.60;;
313;SDS011;143;51.634;7.112;2024-02-04T06:59:01;32.77;;;17.07;;
313;SDS011;143;51.634;7.112;2024-02-04T07:01:27;29.27;;;16.33;;
313;SDS011;143;51.634;7.112;2024-02-04T07:03:52;30.70;;;17.43;;
313;SDS011;143;51.634;7.112;2024-02-04T07:06:18;32.03;;;16.30;;
313;SDS011;143;51.634;7.112;2024-02-04T07:08:44;27.23;;;15.77;;
313;SDS011;143;51.634;7.112;2024-02-04T07:11:09;31.30;;;17.67;;
313;SDS011;143;51.634;7.112;2024-02-04T07:13:35;26.00;;;16.10;;
313;SDS011;143;51.634;7.112;2024-02-04T07:16:00;34.80;;;18.13;;
313;SDS011;143;51.634;7.112;2024-02-04T07:18:26;34.07;;;18.23;;
313;SDS011;143;51.634;7.112;2024-02-04T07:20:51;29.93;;;17.30;;
313;SDS011;143;51.634;7.112;2024-02-04T07:23:17;25.93;;;16.50;;
313;SDS011;143;51.634;7.112;2024-02-04T07:25:42;24.90;;;16.70;;
313;SDS011;143;51.634;7.112;2024-02-04T07:28:08;29.87;;;16.93;;
313;SDS011;143;51.634;7.112;2024-02-04T07:30:34;31.33;;;17.17;;
313;SDS011;143;51.634;7.112;2024-02-04T07:32:59;35.90;;;19.03;;
313;SDS011;143;51.634;7.112;2024-02-04T07:35:25;32.20;;;17.10;;
313;SDS011;143;51.634;7.112;2024-02-04T07:37:50;28.00;;;17.43;;
313;SDS011;143;51.634;7.112;2024-02-04T07:40:16;29.33;;;17.57;;
313;SDS011;143;51.634;7.112;2024-02-04T07:42:41;28.50;;;18.37;;
313;SDS011;143;51.634;7.112;2024-02-04T07:45:07;33.50;;;17.93;;
313;SDS011;143;51.634;7.112;2024-02-04T07:47:35;24.93;;;15.57;;
313;SDS011;143;51.634;7.112;2024-02-04T07:50:01;31.23;;;17.87;;
313;SDS011;143;51.634;7.112;2024-02-04T07:52:27;30.63;;;18.17;;
313;SDS011;143;51.634;7.112;2024-02-04T07:54:53;29.93;;;17.83;;
313;SDS011;143;51.634;7.112;2024-02-04T07:57:19;29.00;;;15.67;;
313;SDS011;143;51.634;7.112;2024-02-04T07:59:45;27.53;;;18.90;;
313;SDS011;143;51.634;7.112;2024-02-04T08:02:11;32.10;;;16.67;;
313;SDS011;143;51.634;7.112;2024-02-04T08:04:36;28.57;;;15.60;;
313;SDS011;143;51.634;7.112;2024-02-04T08:07:05;27.30;;;16.03;;
313;SDS011;143;51.634;7.112;2024-02-04T08:09:31;30.83;;;15.30;;
313;SDS011;143;51.634;7.112;2024-02-04T08:11:56;29.83;;;15.60;;
313;SDS011;143;51.634;7.112;2024-02-04T08:14:22;30.40;;;17.17;;
313;SDS011;143;51.634;7.112;2024-02-04T08:16:47;27.87;;;16.10;;
313;SDS011;143;51.634;7.112;2024-02-04T08:19:13;35.40;;;16.47;;
313;SDS011;143;51.634;7.112;2024-02-04T08:21:39;26.97;;;15.03;;
313;SDS011;143;51.634;7.112;2024-02-04T08:24:04;19.53;;;13.40;;
313;SDS011;143;51.634;7.112;2024-02-04T08:26:30;23.73;;;15.00;;
313;SDS011;143;51.634;7.112;2024-02-04T08:28:56;29.30;;;15.70;;
313;SDS011;143;51.634;7.112;2024-02-04T08:31:21;32.10;;;14.73;;
313;SDS011;143;51.634;7.112;2024-02-04T08:33:47;19.67;;;12.27;;
313;SDS011;143;51.634;7.112;2024-02-04T08:36:12;20.07;;;11.73;;
313;SDS011;143;51.634;7.112;2024-02-04T08:38:38;23.77;;;12.47;;
313;SDS011;143;51.634;7.112;2024-02-04T08:41:04;22.37;;;11.70;;
313;SDS011;143;51.634;7.112;2024-02-04T08:43:29;20.13;;;9.90;;
313;SDS011;143;51.634;7.112;2024-02-04T08:45:55;16.07;;;8.90;;
313;SDS011;143;51.634;7.112;2024-02-04T08:48:20;15.03;;;9.20;;
313;SDS011;143;51.634;7.112;2024-02-04T08:50:46;12.83;;;8.03;;
313;SDS011;143;51.634;7.112;2024-02-04T08:53:12;14.17;;;7.87;;
313;SDS011;143;51.634;7.112;2024-02-04T08:55:37;14.13;;;7.80;;
313;SDS011;143;51.634;7.112;2024-02-04T08:58:03;15.77;;;8.50;;
313;SDS011;143;51.634;7.112;2024-02-04T09:00:28;12.93;;;7.00;;
313;SDS011;143;51.634;7.112;2024-02-04T09:02:54;11.83;;;6.93;;
313;SDS011;143;51.634;7.112;2024-02-04T09:05:20;13.73;;;7.40;;
313;SDS011;143;51.634;7.112;2024-02-04T09:07:46;13.60;;;7.30;;
313;SDS011;143;51.634;7.112;2024-02-04T09:10:11;8.70;;;6.00;;
313;SDS011;143;51.634;7.112;2024-02-04T09:12:37;8.07;;;6.60;;
313;SDS011;143;51.634;7.112;2024-02-04T09:15:03;9.70;;;5.17;;
313;SDS011;143;51.634;7.112;2024-02-04T09:17:29;7.20;;;4.53;;
313;SDS011;143;51.634;7.112;2024-02-04T09:19:57;7.23;;;4.97;;
313;SDS011;143;51.634;7.112;2024-02-04T09:22:22;8.87;;;5.10;;
313;SDS011;143;51.634;7.112;2024-02-04T09:24:48;8.27;;;4.67;;
313;SDS011;143;51.634;7.112;2024-02-04T09:27:13;7.43;;;5.00;;
313;SDS011;143;51.634;7.112;2024-02-04T09:29:39;6.60;;;4.90;;
313;SDS011;143;51.634;7.112;2024-02-04T09:32:05;9.07;;;4.50;;
313;SDS011;143;51.634;7.112;2024-02-04T09:34:30;7.77;;;4.20;;
313;SDS011;143;51.634;7.112;2024-02-04T09:36:56;7.20;;;4.27;;
313;SDS011;143;51.634;7.112;2024-02-04T09:39:21;7.27;;;3.93;;
313;SDS011;143;51.634;7.112;2024-02-04T09:41:47;11.87;;;5.10;;
313;SDS011;143;51.634;7.112;2024-02-04T09:44:12;6.40;;;3.93;;
313;SDS011;143;51.634;7.112;2024-02-04T09:46:39;6.33;;;4.40;;
313;SDS011;143;51.634;7.112;2024-02-04T09:49:04;8.50;;;4.20;;
313;SDS011;143;51.634;7.112;2024-02-04T09:51:30;8.27;;;4.10;;
313;SDS011;143;51.634;7.112;2024-02-04T09:53:57;9.30;;;4.40;;
313;SDS011;143;51.634;7.112;2024-02-04T09:56:26;6.57;;;3.50;;
313;SDS011;143;51.634;7.112;2024-02-04T09:58:52;4.80;;;3.10;;
313;SDS011;143;51.634;7.112;2024-02-04T10:01:18;7.67;;;3.40;;
313;SDS011;143;51.634;7.112;2024-02-04T10:03:46;8.07;;;3.13;;
313;SDS011;143;51.634;7.112;2024-02-04T10:06:12;8.27;;;3.80;;
313;SDS011;143;51.634;7.112;2024-02-04T10:08:38;4.40;;;3.47;;
313;SDS011;143;51.634;7.112;2024-02-04T10:11:04;8.93;;;3.63;;
313;SDS011;143;51.634;7.112;2024-02-04T10:13:29;6.13;;;3.23;;
313;SDS011;143;51.634;7.112;2024-02-04T10:15:55;5.57;;;3.37;;
313;SDS011;143;51.634;7.112;2024-02-04T10:18:21;4.00;;;3.07;;
313;SDS011;143;51.634;7.112;2024-02-04T10:20:47;5.07;;;3.43;;
313;SDS011;143;51.634;7.112;2024-02-04T10:23:12;6.90;;;3.40;;
313;SDS011;143;51.634;7.112;2024-02-04T10:25:39;4.33;;;3.07;;
313;SDS011;143;51.634;7.112;2024-02-04T10:28:04;7.47;;;3.03;;
313;SDS011;143;51.634;7.112;2024-02-04T10:30:30;4.90;;;3.70;;
313;SDS011;143;51.634;7.112;2024-02-04T10:32:56;7.87;;;4.30;;
313;SDS011;143;51.634;7.112;2024-02-04T10:35:22;6.90;;;4.90;;
313;SDS011;143;51.634;7.112;2024-02-04T10:37:51;11.20;;;5.40;;
313;SDS011;143;51.634;7.112;2024-02-04T10:40:17;8.60;;;6.00;;
313;SDS011;143;51.634;7.112;2024-02-04T10:42:43;12.60;;;7.60;;
313;SDS011;143;51.634;7.112;2024-02-04T10:45:10;11.23;;;7.47;;
313;SDS011;143;51.634;7.112;2024-02-04T10:47:39;12.90;;;9.47;;
313;SDS011;143;51.634;7.112;2024-02-04T10:50:07;18.30;;;10.23;;
313;SDS011;143;51.634;7.112;2024-02-04T10:52:39;15.43;;;9.10;;
313;SDS011;143;51.634;7.112;2024-02-04T10:55:07;13.03;;;8.47;;
313;SDS011;143;51.634;7.112;2024-02-04T10:57:35;14.33;;;9.50;;
313;SDS011;143;51.634;7.112;2024-02-04T11:00:02;15.27;;;9.60;;
313;SDS011;143;51.634;7.112;2024-02-04T11:02:33;16.40;;;9.63;;
313;SDS011;143;51.634;7.112;2024-02-04T11:04:59;17.10;;;10.00;;
313;SDS011;143;51.634;7.112;2024-02-04T11:07:28;17.60;;;11.17;;
313;SDS011;143;51.634;7.112;2024-02-04T11:09:56;20.50;;;10.00;;
313;SDS011;143;51.634;7.112;2024-02-04T11:12:22;17.93;;;11.17;;
313;SDS011;143;51.634;7.112;2024-02-04T11:14:51;16.53;;;10.20;;
313;SDS011;143;51.634;7.112;2024-02-04T11:25:47;16.43;;;10.00;;
313;SDS011;143;51.634;7.112;2024-02-04T11:28:16;17.17;;;9.73;;
313;SDS011;143;51.634;7.112;2024-02-04T11:30:42;14.43;;;9.67;;
313;SDS011;143;51.634;7.112;2024-02-04T11:33:10;24.23;;;11.80;;
313;SDS011;143;51.634;7.112;2024-02-04T11:35:36;18.50;;;10.73;;
313;SDS011;143;51.634;7.112;2024-02-04T11:38:05;14.13;;;9.00;;
313;SDS011;143;51.634;7.112;2024-02-04T11:40:31;12.40;;;7.47;;
313;SDS011;143;51.634;7.112;2024-02-04T11:43:07;11.30;;;6.87;;
313;SDS011;143;51.634;7.112;2024-02-04T11:45:37;16.03;;;6.73;;
313;SDS011;143;51.634;7.112;2024-02-04T11:48:06;8.47;;;5.20;;
313;SDS011;143;51.634;7.112;2024-02-04T11:50:32;5.90;;;5.00;;
313;SDS011;143;51.634;7.112;2024-02-04T11:53:06;12.07;;;4.50;;
313;SDS011;143;51.634;7.112;2024-02-04T11:55:34;8.00;;;3.87;;
313;SDS011;143;51.634;7.112;2024-02-04T11:58:03;7.97;;;3.30;;
313;SDS011;143;51.634;7.112;2024-02-04T12:00:34;7.27;;;3.07;;
313;SDS011;143;51.634;7.112;2024-02-04T12:03:00;3.43;;;2.70;;
313;SDS011;143;51.634;7.112;2024-02-04T12:05:33;4.97;;;3.20;;
313;SDS011;143;51.634;7.112;2024-02-04T12:08:03;4.27;;;2.60;;
313;SDS011;143;51.634;7.112;2024-02-04T12:10:31;6.93;;;3.60;;
313;SDS011;143;51.634;7.112;2024-02-04T12:13:04;5.43;;;3.50;;
313;SDS011;143;51.634;7.112;2024-02-04T12:15:34;9.07;;;3.60;;
313;SDS011;143;51.634;7.112;2024-02-04T12:20:33;4.37;;;3.53;;
313;SDS011;143;51.634;7.112;2024-02-04T12:22:59;7.10;;;4.83;;
313;SDS011;143;51.634;7.112;2024-02-04T12:25:27;7.47;;;4.57;;
313;SDS011;143;51.634;7.112;2024-02-04T12:27:54;5.70;;;3.57;;
313;SDS011;143;51.634;7.112;2024-02-04T12:30:20;6.83;;;4.37;;
313;SDS011;143;51.634;7.112;2024-02-04T12:32:55;5.70;;;3.83;;
313;SDS011;143;51.634;7.112;2024-02-04T12:35:21;4.23;;;3.53;;
313;SDS011;143;51.634;7.112;2024-02-04T12:37:53;5.27;;;4.00;;
313;SDS011;143;51.634;7.112;2024-02-04T12:40:23;7.97;;;4.40;;
313;SDS011;143;51.634;7.112;2024-02-04T12:43:00;16.70;;;4.00;;
313;SDS011;143;51.634;7.112;2024-02-04T12:45:27;6.00;;;3.40;;
313;SDS011;143;51.634;7.112;2024-02-04T12:47:54;4.87;;;3.43;;
313;SDS011;143;51.634;7.112;2024-02-04T12:50:21;3.07;;;2.63;;
313;SDS011;143;51.634;7.112;2024-02-04T12:52:47;3.10;;;2.60;;
313;SDS011;143;51.634;7.112;2024-02-04T12:55:24;3.37;;;2.40;;
313;SDS011;143;51.634;7.112;2024-02-04T12:58:06;3.50;;;2.70;;
313;SDS011;143;51.634;7.112;2024-02-04T13:00:34;3.63;;;2.83;;
313;SDS011;143;51.634;7.112;2024-02-04T13:03:01;5.40;;;3.20;;
313;SDS011;143;51.634;7.112;2024-02-04T13:05:27;4.70;;;3.23;;
313;SDS011;143;51.634;7.112;2024-02-04T13:07:55;3.87;;;3.10;;
313;SDS011;143;51.634;7.112;2024-02-04T13:10:27;4.70;;;3.40;;
313;SDS011;143;51.634;7.112;2024-02-04T13:13:00;4.87;;;3.97;;
313;SDS011;143;51.634;7.112;2024-02-04T13:15:29;4.50;;;3.37;;
313;SDS011;143;51.634;7.112;2024-02-04T13:17:56;5.57;;;3.00;;
313;SDS011;143;51.634;7.112;2024-02-04T13:20:22;3.80;;;3.13;;
313;SDS011;143;51.634;7.112;2024-02-04T13:22:47;3.43;;;2.87;;
313;SDS011;143;51.634;7.112;2024-02-04T13:25:13;3.50;;;3.10;;
313;SDS011;143;51.634;7.112;2024-02-04T13:27:39;5.50;;;3.97;;
313;SDS011;143;51.634;7.112;2024-02-04T13:30:06;3.70;;;2.80;;
313;SDS011;143;51.634;7.112;2024-02-04T13:32:36;5.07;;;3.80;;
313;SDS011;143;51.634;7.112;2024-02-04T13:35:04;4.63;;;3.50;;
313;SDS011;143;51.634;7.112;2024-02-04T13:37:31;5.80;;;4.00;;
313;SDS011;143;51.634;7.112;2024-02-04T13:39:56;6.50;;;4.53;;
313;SDS011;143;51.634;7.112;2024-02-04T13:42:22;6.90;;;4.80;;
313;SDS011;143;51.634;7.112;2024-02-04T13:44:48;6.97;;;4.50;;
313;SDS011;143;51.634;7.112;2024-02-04T13:47:14;8.00;;;4.87;;
313;SDS011;143;51.634;7.112;2024-02-04T13:49:39;9.00;;;5.30;;
313;SDS011;143;51.634;7.112;2024-02-04T13:52:05;10.23;;;6.47;;
313;SDS011;143;51.634;7.112;2024-02-04T13:54:30;8.57;;;6.20;;
313;SDS011;143;51.634;7.112;2024-02-04T13:56:56;9.73;;;5.30;;
313;SDS011;143;51.634;7.112;2024-02-04T13:59:21;8.93;;;5.33;;
313;SDS011;143;51.634;7.112;2024-02-04T14:01:47;7.60;;;4.83;;
313;SDS011;143;51.634;7.112;2024-02-04T14:04:12;8.50;;;5.20;;
313;SDS011;143;51.634;7.112;2024-02-04T14:06:38;8.93;;;5.93;;
313;SDS011;143;51.634;7.112;2024-02-04T14:09:03;7.43;;;5.47;;
313;SDS011;143;51.634;7.112;2024-02-04T14:11:30;6.50;;;4.87;;
313;SDS011;143;51.634;7.112;2024-02-04T14:13:55;8.20;;;5.83;;
313;SDS011;143;51.634;7.112;2024-02-04T14:16:21;12.10;;;6.27;;
313;SDS011;143;51.634;7.112;2024-02-04T14:18:46;8.47;;;4.90;;
313;SDS011;143;51.634;7.112;2024-02-04T14:21:12;6.43;;;4.70;;
313;SDS011;143;51.634;7.112;2024-02-04T14:23:40;8.47;;;5.13;;
313;SDS011;143;51.634;7.112;2024-02-04T14:26:06;8.17;;;5.40;;
313;SDS011;143;51.634;7.112;2024-02-04T14:28:33;5.50;;;4.27;;
313;SDS011;143;51.634;7.112;2024-02-04T14:31:06;6.10;;;4.90;;
313;SDS011;143;51.634;7.112;2024-02-04T14:33:32;6.73;;;4.00;;
313;SDS011;143;51.634;7.112;2024-02-04T14:35:57;9.43;;;4.70;;
313;SDS011;143;51.634;7.112;2024-02-04T14:38:24;6.90;;;4.90;;
313;SDS011;143;51.634;7.112;2024-02-04T14:40:50;7.57;;;5.40;;
313;SDS011;143;51.634;7.112;2024-02-04T14:43:15;9.67;;;5.83;;
313;SDS011;143;51.634;7.112;2024-02-04T14:45:42;19.63;;;5.43;;
313;SDS011;143;51.634;7.112;2024-02-04T14:48:08;7.70;;;5.30;;
313;SDS011;143;51.634;7.112;2024-02-04T14:50:34;8.47;;;5.73;;
313;SDS011;143;51.634;7.112;2024-02-04T14:53:00;8.77;;;5.73;;
313;SDS011;143;51.634;7.112;2024-02-04T14:55:26;9.10;;;6.13;;
313;SDS011;143;51.634;7.112;2024-02-04T14:57:52;8.07;;;5.80;;
313;SDS011;143;51.634;7.112;2024-02-04T15:00:18;8.03;;;5.37;;
313;SDS011;143;51.634;7.112;2024-02-04T15:02:46;8.47;;;5.90;;
313;SDS011;143;51.634;7.112;2024-02-04T15:05:11;10.13;;;5.50;;
313;SDS011;143;51.634;7.112;2024-02-04T15:07:37;8.50;;;5.60;;
313;SDS011;143;51.634;7.112;2024-02-04T15:10:02;7.70;;;5.33;;
313;SDS011;143;51.634;7.112;2024-02-04T15:12:28;9.30;;;6.27;;
313;SDS011;143;51.634;7.112;2024-02-04T15:14:54;11.20;;;5.10;;
313;SDS011;143;51.634;7.112;2024-02-04T15:17:19;8.93;;;5.73;;
313;SDS011;143;51.634;7.112;2024-02-04T15:19:45;10.23;;;5.77;;
313;SDS011;143;51.634;7.112;2024-02-04T15:22:12;11.20;;;5.67;;
313;SDS011;143;51.634;7.112;2024-02-04T15:24:38;8.20;;;5.23;;
313;SDS011;143;51.634;7.112;2024-02-04T15:27:04;11.10;;;6.23;;
313;SDS011;143;51.634;7.112;2024-02-04T15:29:34;13.90;;;6.60;;
313;SDS011;143;51.634;7.112;2024-02-04T15:32:01;9.73;;;6.90;;
313;SDS011;143;51.634;7.112;2024-02-04T15:34:27;9.90;;;6.70;;
313;SDS011;143;51.634;7.112;2024-02-04T15:36:56;12.57;;;8.00;;